Time;durP1;ratioP1;P1;durP2;ratioP2;P2;SDS_P1;SDS_P2;PMS_P1;PMS_P2;Temp;Humidity;BMP_temperature;BMP_pressure;BME280_temperature;BME280_humidity;BME280_pressure;Samples;Min_cycle;Max_cycle;Signal;HPM_P1;HPM_P2
2023/10/21 00:02:02;;;;;;;5.18;1.90;;;;;;;;;;5055995;28;20017;-87
2023/10/21 00:04:28;;;;;;;4.75;1.98;;;;;;;;;;5054674;28;20387;-87
2023/10/21 00:06:54;;;;;;;5.70;2.22;;;;;;;;;;5057952;28;20097;-87
2023/10/21 00:09:19;;;;;;;4.88;2.13;;;;;;;;;;5062516;28;20077;-83
2023/10/21 00:11:45;;;;;;;3.97;1.42;;;;;;;;;;5080162;28;20025;-83
2023/10/21 00:14:14;;;;;;;3.45;1.35;;;;;;;;;;5055730;28;20016;-83
2023/10/21 00:16:40;;;;;;;2.70;1.40;;;;;;;;;;5058810;28;20047;-83
2023/10/21 00:19:07;;;;;;;6.60;1.60;;;;;;;;;;5057328;28;20435;-83
2023/10/21 00:21:33;;;;;;;6.13;1.65;;;;;;;;;;5069893;28;20476;-83
2023/10/21 00:23:58;;;;;;;5.47;1.35;;;;;;;;;;5053113;28;20170;-83
2023/10/21 00:26:23;;;;;;;4.72;1.55;;;;;;;;;;5071406;28;20133;-82
2023/10/21 00:28:52;;;;;;;3.45;1.48;;;;;;;;;;5053444;28;20016;-83
2023/10/21 00:31:17;;;;;;;5.05;1.30;;;;;;;;;;5053670;28;20332;-83
2023/10/21 00:33:45;;;;;;;5.40;1.40;;;;;;;;;;5052158;28;20024;-83
2023/10/21 00:36:10;;;;;;;3.85;1.50;;;;;;;;;;5053138;28;20004;-83
2023/10/21 00:38:35;;;;;;;4.22;1.50;;;;;;;;;;5053462;28;20044;-83
2023/10/21 00:41:01;;;;;;;4.13;1.30;;;;;;;;;;5053130;28;20048;-83
2023/10/21 00:43:32;;;;;;;2.67;1.35;;;;;;;;;;5052372;28;20017;-83
2023/10/21 00:45:58;;;;;;;7.55;1.60;;;;;;;;;;5052726;28;20407;-82
2023/10/21 00:48:24;;;;;;;7.05;1.88;;;;;;;;;;5052294;28;20029;-83
2023/10/21 00:50:50;;;;;;;6.60;1.52;;;;;;;;;;5053586;28;20107;-83
2023/10/21 00:53:16;;;;;;;5.28;1.35;;;;;;;;;;5071029;28;20023;-82
2023/10/21 00:55:45;;;;;;;4.35;1.30;;;;;;;;;;5085491;28;20066;-83
2023/10/21 00:58:11;;;;;;;5.60;1.23;;;;;;;;;;5061939;28;20352;-86
2023/10/21 01:00:37;;;;;;;5.65;1.38;;;;;;;;;;5058864;28;20460;-79
2023/10/21 01:03:03;;;;;;;6.22;1.98;;;;;;;;;;5053940;28;20138;-80
2023/10/21 01:05:29;;;;;;;1.98;1.17;;;;;;;;;;5055044;28;20016;-80
2023/10/21 01:08:03;;;;;;;4.63;1.25;;;;;;;;;;5073825;28;20099;-80
2023/10/21 01:10:28;;;;;;;4.43;1.20;;;;;;;;;;5087570;28;20020;-80
2023/10/21 01:12:57;;;;;;;7.40;1.42;;;;;;;;;;5063839;28;20127;-83
2023/10/21 01:15:23;;;;;;;3.60;1.30;;;;;;;;;;5060206;28;20518;-80
2023/10/21 01:17:52;;;;;;;2.17;1.20;;;;;;;;;;5061164;28;20025;-80
2023/10/21 01:20:18;;;;;;;5.20;1.20;;;;;;;;;;5055491;28;20341;-80
2023/10/21 01:22:43;;;;;;;4.35;1.08;;;;;;;;;;5056633;28;20024;-80
2023/10/21 01:25:09;;;;;;;4.40;1.33;;;;;;;;;;5090810;28;20031;-79
2023/10/21 01:27:35;;;;;;;2.40;1.17;;;;;;;;;;5066748;28;20027;-82
2023/10/21 01:30:07;;;;;;;3.72;1.42;;;;;;;;;;5056597;28;20032;-83
2023/10/21 01:32:32;;;;;;;9.07;1.90;;;;;;;;;;5055164;28;20165;-83
2023/10/21 01:35:00;;;;;;;7.35;1.52;;;;;;;;;;5056163;28;20277;-83
2023/10/21 01:37:26;;;;;;;8.75;1.20;;;;;;;;;;5073463;28;20024;-83
2023/10/21 01:39:54;;;;;;;2.03;1.10;;;;;;;;;;5073332;28;20017;-83
2023/10/21 01:42:20;;;;;;;8.43;1.40;;;;;;;;;;5056204;28;20085;-83
2023/10/21 01:44:45;;;;;;;3.90;1.65;;;;;;;;;;5056235;28;20029;-83
2023/10/21 01:47:10;;;;;;;3.08;1.20;;;;;;;;;;5056005;28;20027;-83
2023/10/21 01:49:36;;;;;;;4.63;1.73;;;;;;;;;;5074273;28;20017;-83
2023/10/21 01:52:04;;;;;;;12.57;2.92;;;;;;;;;;5055849;28;20348;-82
2023/10/21 01:54:31;;;;;;;8.20;1.13;;;;;;;;;;5056198;28;20016;-83
2023/10/21 01:56:57;;;;;;;7.70;1.25;;;;;;;;;;5089320;28;20314;-82
2023/10/21 01:59:24;;;;;;;5.15;1.73;;;;;;;;;;5055642;28;20009;-83
2023/10/21 02:01:50;;;;;;;2.33;1.35;;;;;;;;;;5058349;28;20392;-84
2023/10/21 02:04:16;;;;;;;2.53;1.48;;;;;;;;;;5055002;28;20027;-84
2023/10/21 02:06:41;;;;;;;9.88;1.30;;;;;;;;;;5055765;28;20048;-83
2023/10/21 02:09:07;;;;;;;5.60;1.60;;;;;;;;;;5064414;28;20487;-83
2023/10/21 02:11:33;;;;;;;8.38;1.50;;;;;;;;;;5055504;28;20078;-83
2023/10/21 02:13:58;;;;;;;6.38;1.60;;;;;;;;;;5089884;28;20029;-84
2023/10/21 02:16:24;;;;;;;7.03;1.67;;;;;;;;;;5093866;28;20012;-83
2023/10/21 02:18:49;;;;;;;3.58;1.70;;;;;;;;;;5077496;28;20013;-83
2023/10/21 02:21:14;;;;;;;5.72;1.40;;;;;;;;;;5057614;28;20028;-83
2023/10/21 02:23:40;;;;;;;3.55;1.63;;;;;;;;;;5061031;28;20051;-87
2023/10/21 02:26:07;;;;;;;4.13;1.55;;;;;;;;;;5058685;28;20025;-87
2023/10/21 02:28:32;;;;;;;5.63;1.60;;;;;;;;;;5060569;28;20016;-87
2023/10/21 02:31:01;;;;;;;7.13;1.38;;;;;;;;;;5075910;28;20071;-87
2023/10/21 02:33:26;;;;;;;3.30;1.30;;;;;;;;;;5075083;28;20504;-87
2023/10/21 02:35:52;;;;;;;5.97;1.90;;;;;;;;;;5055418;28;20052;-87
2023/10/21 02:38:18;;;;;;;4.68;1.60;;;;;;;;;;5073644;28;20013;-87
2023/10/21 02:40:43;;;;;;;5.82;1.60;;;;;;;;;;5089077;28;20078;-87
2023/10/21 02:43:12;;;;;;;5.18;1.48;;;;;;;;;;5089108;28;20012;-87
2023/10/21 02:45:39;;;;;;;7.03;1.73;;;;;;;;;;5055932;28;20078;-87
2023/10/21 02:48:07;;;;;;;3.92;1.48;;;;;;;;;;5055171;28;20039;-86
2023/10/21 02:50:32;;;;;;;10.45;2.33;;;;;;;;;;5088737;28;20468;-86
2023/10/21 02:52:58;;;;;;;6.88;1.60;;;;;;;;;;5055348;28;20066;-86
2023/10/21 02:55:26;;;;;;;5.10;1.77;;;;;;;;;;5056024;28;20494;-86
2023/10/21 02:57:51;;;;;;;8.07;1.65;;;;;;;;;;5054939;28;20028;-87
2023/10/21 03:00:17;;;;;;;7.22;2.03;;;;;;;;;;5055607;28;20031;-87
2023/10/21 03:02:43;;;;;;;6.78;1.70;;;;;;;;;;5054461;28;20020;-86
2023/10/21 03:05:08;;;;;;;4.90;1.67;;;;;;;;;;5055591;28;20081;-87
2023/10/21 03:07:34;;;;;;;7.43;1.70;;;;;;;;;;5088765;28;20021;-87
2023/10/21 03:09:59;;;;;;;6.07;1.83;;;;;;;;;;5056097;28;20582;-87
2023/10/21 03:12:25;;;;;;;8.02;1.95;;;;;;;;;;5055191;28;20024;-87
2023/10/21 03:14:50;;;;;;;6.38;1.52;;;;;;;;;;5055137;28;20016;-87
2023/10/21 03:17:19;;;;;;;4.63;2.05;;;;;;;;;;5088810;28;20037;-86
2023/10/21 03:19:44;;;;;;;3.22;1.80;;;;;;;;;;5055704;28;20143;-87
2023/10/21 03:22:13;;;;;;;6.28;1.95;;;;;;;;;;5055765;28;20048;-87
2023/10/21 03:24:38;;;;;;;3.90;1.77;;;;;;;;;;5055518;28;20035;-86
2023/10/21 03:27:04;;;;;;;7.10;2.20;;;;;;;;;;5057409;28;20028;-87
2023/10/21 03:29:32;;;;;;;7.95;2.42;;;;;;;;;;5057130;28;20020;-87
2023/10/21 03:31:57;;;;;;;10.27;2.20;;;;;;;;;;5077937;28;20161;-83
2023/10/21 03:34:26;;;;;;;12.82;2.60;;;;;;;;;;5061689;28;20379;-80
2023/10/21 03:36:54;;;;;;;10.23;2.25;;;;;;;;;;5075506;28;20012;-80
2023/10/21 03:39:21;;;;;;;4.35;1.80;;;;;;;;;;5055754;28;20042;-80
2023/10/21 03:41:46;;;;;;;4.78;2.60;;;;;;;;;;5055904;28;20382;-80
2023/10/21 03:44:12;;;;;;;7.60;2.28;;;;;;;;;;5072545;28;20020;-80
2023/10/21 03:46:37;;;;;;;11.20;2.58;;;;;;;;;;5057875;28;20073;-80
2023/10/21 03:49:06;;;;;;;8.52;1.98;;;;;;;;;;5088676;28;20402;-80
2023/10/21 03:51:31;;;;;;;9.10;1.90;;;;;;;;;;5072102;28;20103;-81
2023/10/21 03:53:56;;;;;;;3.70;1.95;;;;;;;;;;5087226;28;20107;-80
2023/10/21 03:56:21;;;;;;;9.00;1.67;;;;;;;;;;5054212;28;20017;-80
2023/10/21 03:58:50;;;;;;;4.75;1.50;;;;;;;;;;5053892;28;20048;-79
2023/10/21 04:01:15;;;;;;;7.45;1.85;;;;;;;;;;5054024;28;20092;-80
2023/10/21 04:03:40;;;;;;;8.05;2.10;;;;;;;;;;5053988;28;20032;-79
2023/10/21 04:06:08;;;;;;;13.48;2.35;;;;;;;;;;5087147;28;20032;-80
2023/10/21 04:08:33;;;;;;;5.90;1.95;;;;;;;;;;5087457;28;20454;-80
2023/10/21 04:10:59;;;;;;;6.55;1.95;;;;;;;;;;5053770;28;20099;-80
2023/10/21 04:13:24;;;;;;;5.50;1.70;;;;;;;;;;5053704;28;20044;-80
2023/10/21 04:15:50;;;;;;;6.10;1.65;;;;;;;;;;5052904;28;20074;-80
2023/10/21 04:18:15;;;;;;;11.77;2.33;;;;;;;;;;5053860;28;20119;-80
2023/10/21 04:20:41;;;;;;;5.95;1.60;;;;;;;;;;5071985;28;20065;-81
2023/10/21 04:23:09;;;;;;;4.72;1.70;;;;;;;;;;5054001;28;20020;-80
2023/10/21 04:25:34;;;;;;;10.35;1.77;;;;;;;;;;5071699;28;20021;-80
2023/10/21 04:28:01;;;;;;;10.13;1.88;;;;;;;;;;5077431;28;20035;-83
2023/10/21 04:30:26;;;;;;;7.28;1.50;;;;;;;;;;5054757;28;20468;-83
2023/10/21 04:32:55;;;;;;;3.60;1.25;;;;;;;;;;5054054;28;20069;-84
2023/10/21 04:35:20;;;;;;;6.28;1.85;;;;;;;;;;5073412;28;20020;-84
2023/10/21 04:37:52;;;;;;;7.25;2.03;;;;;;;;;;5083556;28;20012;-80
2023/10/21 04:40:20;;;;;;;6.82;1.40;;;;;;;;;;5054791;28;20029;-80
2023/10/21 04:42:46;;;;;;;4.85;1.40;;;;;;;;;;5056043;28;20024;-80
2023/10/21 04:45:11;;;;;;;3.40;1.40;;;;;;;;;;5054810;28;20067;-79
2023/10/21 04:47:37;;;;;;;5.25;1.42;;;;;;;;;;5074679;28;20017;-80
2023/10/21 04:50:04;;;;;;;6.80;1.45;;;;;;;;;;5055979;28;20031;-80
2023/10/21 04:52:29;;;;;;;3.35;1.50;;;;;;;;;;5055341;28;20032;-80
2023/10/21 04:54:55;;;;;;;3.28;1.13;;;;;;;;;;5055100;28;20100;-80
2023/10/21 04:57:20;;;;;;;8.38;1.73;;;;;;;;;;5054443;28;20436;-80
2023/10/21 04:59:45;;;;;;;3.45;1.30;;;;;;;;;;5089592;28;20028;-80
2023/10/21 05:02:11;;;;;;;2.53;1.23;;;;;;;;;;5090816;28;20120;-79
2023/10/21 05:04:37;;;;;;;6.80;1.60;;;;;;;;;;5075466;28;20105;-80
2023/10/21 05:07:02;;;;;;;3.70;1.70;;;;;;;;;;5057263;28;20074;-80
2023/10/21 05:09:28;;;;;;;7.20;1.70;;;;;;;;;;5075204;28;20028;-80
2023/10/21 05:11:53;;;;;;;7.55;1.60;;;;;;;;;;5057176;28;20020;-80
2023/10/21 05:14:18;;;;;;;9.55;2.20;;;;;;;;;;5075168;28;20063;-80
2023/10/21 05:16:44;;;;;;;6.15;1.67;;;;;;;;;;5057159;28;20082;-80
2023/10/21 05:19:09;;;;;;;7.43;2.08;;;;;;;;;;5056755;28;20030;-80
2023/10/21 05:21:34;;;;;;;9.02;1.52;;;;;;;;;;5056403;28;20134;-81
2023/10/21 05:24:00;;;;;;;7.85;1.67;;;;;;;;;;5090001;28;20035;-80
2023/10/21 05:26:28;;;;;;;6.88;1.50;;;;;;;;;;5055894;28;20027;-81
2023/10/21 05:28:54;;;;;;;4.28;1.50;;;;;;;;;;5074190;28;20407;-80
2023/10/21 05:31:19;;;;;;;6.65;1.27;;;;;;;;;;5056552;28;20398;-80
2023/10/21 05:33:44;;;;;;;2.28;1.17;;;;;;;;;;5056238;28;20028;-79
2023/10/21 05:36:10;;;;;;;5.63;1.20;;;;;;;;;;5056973;28;20028;-80
2023/10/21 05:38:38;;;;;;;5.75;1.30;;;;;;;;;;5057028;28;20039;-80
2023/10/21 05:41:03;;;;;;;8.30;1.73;;;;;;;;;;5056572;28;20062;-79
2023/10/21 05:43:28;;;;;;;5.85;1.25;;;;;;;;;;5056645;28;20063;-79
2023/10/21 05:45:54;;;;;;;7.40;1.33;;;;;;;;;;5075069;28;20020;-79
2023/10/21 05:48:22;;;;;;;4.93;1.20;;;;;;;;;;5058988;28;20039;-80
2023/10/21 05:50:48;;;;;;;3.13;1.17;;;;;;;;;;5078020;28;20025;-80
2023/10/21 05:53:14;;;;;;;3.50;1.25;;;;;;;;;;5061986;28;20031;-80
2023/10/21 05:55:44;;;;;;;4.47;1.20;;;;;;;;;;5076845;28;20028;-80
2023/10/21 05:58:13;;;;;;;3.80;1.02;;;;;;;;;;5088833;28;20031;-80
2023/10/21 06:00:38;;;;;;;6.30;1.02;;;;;;;;;;5058309;28;20334;-80
2023/10/21 06:03:10;;;;;;;6.63;1.40;;;;;;;;;;5051162;28;20086;-80
2023/10/21 06:05:35;;;;;;;3.30;1.10;;;;;;;;;;5093520;28;20055;-80
2023/10/21 06:08:00;;;;;;;5.25;1.00;;;;;;;;;;5055964;28;20265;-79
2023/10/21 06:10:26;;;;;;;2.75;0.93;;;;;;;;;;5055199;28;20035;-80
2023/10/21 06:12:51;;;;;;;3.42;0.82;;;;;;;;;;5056206;28;20031;-79
2023/10/21 06:15:16;;;;;;;2.38;0.80;;;;;;;;;;5055666;28;20113;-80
2023/10/21 06:17:42;;;;;;;2.22;0.70;;;;;;;;;;5054948;28;20112;-79
2023/10/21 06:20:08;;;;;;;2.85;0.70;;;;;;;;;;5070813;28;20031;-80
2023/10/21 06:22:33;;;;;;;0.85;0.50;;;;;;;;;;5054817;28;20434;-80
2023/10/21 06:24:59;;;;;;;2.63;0.60;;;;;;;;;;5073059;28;20123;-78
2023/10/21 06:27:24;;;;;;;1.25;0.30;;;;;;;;;;5055211;28;20097;-80
2023/10/21 06:29:50;;;;;;;1.60;0.50;;;;;;;;;;5073257;28;20012;-79
2023/10/21 06:32:15;;;;;;;0.90;0.50;;;;;;;;;;5053522;28;20021;-80
2023/10/21 06:34:40;;;;;;;0.38;0.30;;;;;;;;;;5053753;28;20130;-80
2023/10/21 06:37:06;;;;;;;0.77;0.40;;;;;;;;;;5053774;28;20025;-80
2023/10/21 06:39:31;;;;;;;1.27;0.40;;;;;;;;;;5054355;28;20477;-80
2023/10/21 06:42:00;;;;;;;1.73;0.85;;;;;;;;;;5072413;28;20017;-80
2023/10/21 06:44:25;;;;;;;1.60;0.40;;;;;;;;;;5055389;28;20458;-80
2023/10/21 06:46:51;;;;;;;0.20;0.20;;;;;;;;;;5056807;28;20025;-80
2023/10/21 06:49:16;;;;;;;0.30;0.30;;;;;;;;;;5056074;28;20017;-80
2023/10/21 06:51:42;;;;;;;1.30;0.38;;;;;;;;;;5073338;28;20025;-80
2023/10/21 06:54:09;;;;;;;1.48;0.43;;;;;;;;;;5054460;28;20759;-80
2023/10/21 06:56:35;;;;;;;2.55;0.40;;;;;;;;;;5048799;28;20112;-80
2023/10/21 06:59:06;;;;;;;0.60;0.35;;;;;;;;;;5074409;28;20060;-80
2023/10/21 07:01:32;;;;;;;2.43;0.40;;;;;;;;;;5071845;28;20032;-80
2023/10/21 07:03:57;;;;;;;0.80;0.20;;;;;;;;;;5055378;28;20269;-80
2023/10/21 07:06:23;;;;;;;1.92;0.30;;;;;;;;;;5073593;28;20036;-81
2023/10/21 07:08:48;;;;;;;2.58;0.30;;;;;;;;;;5056093;28;20028;-79
2023/10/21 07:11:14;;;;;;;2.92;0.38;;;;;;;;;;5074918;28;20374;-80
2023/10/21 07:13:39;;;;;;;2.00;0.50;;;;;;;;;;5055156;28;20070;-80
2023/10/21 07:16:11;;;;;;;4.47;0.40;;;;;;;;;;5054316;28;20033;-80
2023/10/21 07:18:37;;;;;;;4.57;0.30;;;;;;;;;;5054496;28;20035;-79
2023/10/21 07:21:02;;;;;;;0.50;0.30;;;;;;;;;;5053137;28;20033;-79
2023/10/21 07:23:28;;;;;;;3.60;0.40;;;;;;;;;;5052994;28;20032;-80
2023/10/21 07:25:53;;;;;;;0.55;0.10;;;;;;;;;;5050280;28;20059;-80
2023/10/21 07:28:19;;;;;;;1.15;0.40;;;;;;;;;;5069592;28;20070;-79
2023/10/21 07:30:44;;;;;;;0.20;0.20;;;;;;;;;;5053974;28;20028;-80
2023/10/21 07:33:09;;;;;;;2.13;0.55;;;;;;;;;;5053367;28;20028;-80
2023/10/21 07:35:35;;;;;;;1.30;0.50;;;;;;;;;;5054314;28;20055;-80
2023/10/21 07:38:00;;;;;;;1.30;0.57;;;;;;;;;;5052913;28;20012;-80
2023/10/21 07:40:27;;;;;;;2.25;0.40;;;;;;;;;;5072121;28;20539;-80
2023/10/21 07:42:53;;;;;;;2.55;0.60;;;;;;;;;;5072184;28;20428;-80
2023/10/21 07:45:18;;;;;;;2.33;0.35;;;;;;;;;;5051109;28;20399;-80
2023/10/21 07:47:43;;;;;;;0.65;0.30;;;;;;;;;;5050693;28;20089;-80
2023/10/21 07:50:09;;;;;;;0.85;0.30;;;;;;;;;;5050699;28;20016;-80
2023/10/21 07:52:37;;;;;;;3.72;0.57;;;;;;;;;;5070117;28;20078;-80
2023/10/21 07:55:03;;;;;;;1.42;0.20;;;;;;;;;;5052969;28;20027;-80
2023/10/21 07:57:29;;;;;;;0.60;0.30;;;;;;;;;;5069633;28;20016;-80
2023/10/21 07:59:54;;;;;;;2.08;0.63;;;;;;;;;;5072723;28;20016;-80
2023/10/21 08:02:21;;;;;;;1.95;0.28;;;;;;;;;;5053846;28;20115;-80
2023/10/21 08:04:46;;;;;;;1.77;0.60;;;;;;;;;;5053658;28;20028;-80
2023/10/21 08:07:12;;;;;;;1.50;0.40;;;;;;;;;;5053724;28;20021;-80
2023/10/21 08:09:40;;;;;;;0.35;0.10;;;;;;;;;;5061412;28;20032;-82
2023/10/21 08:12:10;;;;;;;3.00;0.57;;;;;;;;;;5061178;28;20048;-88
2023/10/21 08:14:40;;;;;;;2.90;0.40;;;;;;;;;;5059651;28;20476;-87
2023/10/21 08:17:07;;;;;;;5.28;0.60;;;;;;;;;;5057983;28;20040;-87
2023/10/21 08:19:33;;;;;;;2.88;0.40;;;;;;;;;;5059010;28;20036;-87
2023/10/21 08:22:01;;;;;;;3.30;0.45;;;;;;;;;;5056115;28;20104;-87
2023/10/21 08:24:27;;;;;;;2.85;0.20;;;;;;;;;;5057387;28;20024;-87
2023/10/21 08:26:53;;;;;;;2.38;0.43;;;;;;;;;;5054667;28;20024;-86
2023/10/21 08:29:20;;;;;;;1.42;0.30;;;;;;;;;;5054284;28;20016;-87
2023/10/21 08:31:46;;;;;;;6.72;0.45;;;;;;;;;;5043492;28;20120;-86
2023/10/21 08:34:12;;;;;;;4.53;0.60;;;;;;;;;;5056089;28;20036;-87
2023/10/21 08:36:38;;;;;;;2.00;0.40;;;;;;;;;;5057602;28;20326;-87
2023/10/21 08:39:07;;;;;;;6.32;0.30;;;;;;;;;;5058425;28;20031;-87
2023/10/21 08:41:34;;;;;;;1.42;0.40;;;;;;;;;;5058100;28;20067;-87
2023/10/21 08:44:00;;;;;;;0.32;0.08;;;;;;;;;;5058132;28;20442;-88
2023/10/21 08:46:30;;;;;;;1.15;0.40;;;;;;;;;;5057597;28;20051;-87
2023/10/21 08:48:55;;;;;;;1.25;0.28;;;;;;;;;;5056884;28;20028;-88
2023/10/21 08:51:21;;;;;;;4.03;0.75;;;;;;;;;;5057641;28;20027;-88
2023/10/21 08:53:52;;;;;;;1.30;0.30;;;;;;;;;;5043886;28;20052;-88
2023/10/21 08:56:17;;;;;;;1.75;0.50;;;;;;;;;;5075743;28;20031;-88
2023/10/21 08:58:42;;;;;;;2.35;0.50;;;;;;;;;;5075091;28;20025;-89
2023/10/21 09:01:09;;;;;;;4.47;0.47;;;;;;;;;;5088284;28;20024;-89
2023/10/21 09:03:34;;;;;;;2.70;0.50;;;;;;;;;;5053446;28;20025;-88
2023/10/21 09:06:03;;;;;;;5.78;0.57;;;;;;;;;;5055532;28;20023;-88
2023/10/21 09:08:32;;;;;;;0.60;0.40;;;;;;;;;;5058061;28;20048;-89
2023/10/21 09:11:06;;;;;;;4.40;0.57;;;;;;;;;;5071153;28;20020;-88
2023/10/21 09:13:31;;;;;;;4.82;0.57;;;;;;;;;;5074343;28;20166;-89
2023/10/21 09:15:57;;;;;;;4.40;0.68;;;;;;;;;;5059530;28;20036;-88
2023/10/21 09:18:26;;;;;;;3.97;0.52;;;;;;;;;;5089731;28;20071;-89
2023/10/21 09:20:51;;;;;;;3.30;0.73;;;;;;;;;;5055599;28;20080;-88
2023/10/21 09:23:19;;;;;;;4.05;0.70;;;;;;;;;;5057645;28;20024;-88
2023/10/21 09:25:49;;;;;;;5.90;0.47;;;;;;;;;;5060958;28;20029;-89
2023/10/21 09:28:19;;;;;;;7.30;0.82;;;;;;;;;;5080554;28;20021;-88
2023/10/21 09:30:53;;;;;;;3.42;0.50;;;;;;;;;;5060390;28;20028;-89
2023/10/21 09:33:21;;;;;;;3.42;0.40;;;;;;;;;;5059838;28;20457;-89
2023/10/21 09:35:58;;;;;;;3.40;0.50;;;;;;;;;;5057448;28;20016;-89
2023/10/21 09:38:24;;;;;;;2.30;0.32;;;;;;;;;;5057244;28;20107;-88
2023/10/21 09:40:50;;;;;;;4.10;0.35;;;;;;;;;;5057505;28;20047;-89
2023/10/21 09:43:17;;;;;;;4.45;0.57;;;;;;;;;;5057587;28;20074;-88
2023/10/21 09:45:46;;;;;;;4.03;0.63;;;;;;;;;;5074913;28;20027;-89
2023/10/21 09:48:11;;;;;;;3.65;0.77;;;;;;;;;;5060457;28;20044;-88
2023/10/21 09:50:44;;;;;;;5.22;0.68;;;;;;;;;;5058410;28;20027;-88
2023/10/21 09:53:11;;;;;;;6.38;0.70;;;;;;;;;;5054915;28;20468;-89
2023/10/21 09:55:37;;;;;;;5.65;0.60;;;;;;;;;;5051249;28;20044;-89
2023/10/21 09:58:05;;;;;;;5.13;0.73;;;;;;;;;;5055698;28;20468;-89
2023/10/21 10:00:30;;;;;;;7.32;1.13;;;;;;;;;;5056215;28;20078;-91
2023/10/21 10:02:56;;;;;;;5.80;0.80;;;;;;;;;;5054489;28;20016;-90
2023/10/21 10:05:21;;;;;;;5.07;0.55;;;;;;;;;;5055429;28;20081;-91
2023/10/21 10:07:47;;;;;;;4.93;0.85;;;;;;;;;;5052112;28;20154;-91
2023/10/21 10:10:14;;;;;;;5.72;0.80;;;;;;;;;;5054934;28;20028;-89
2023/10/21 10:12:52;;;;;;;7.85;0.80;;;;;;;;;;5067750;28;20424;-90
2023/10/21 10:15:27;;;;;;;3.40;0.40;;;;;;;;;;5082561;28;20024;-90
2023/10/21 10:17:53;;;;;;;8.32;0.88;;;;;;;;;;5074654;28;20020;-90
2023/10/21 10:20:28;;;;;;;5.65;0.50;;;;;;;;;;5055660;28;20032;-90
2023/10/21 10:22:58;;;;;;;8.57;1.38;;;;;;;;;;5055638;28;20372;-90
2023/10/21 10:25:33;;;;;;;7.95;0.80;;;;;;;;;;5056463;28;20415;-91
2023/10/21 10:28:00;;;;;;;3.90;0.55;;;;;;;;;;5054920;28;20383;-90
2023/10/21 10:30:31;;;;;;;5.47;0.95;;;;;;;;;;5054778;28;20063;-90
2023/10/21 10:33:01;;;;;;;9.95;1.10;;;;;;;;;;5054855;28;20052;-90
2023/10/21 10:35:32;;;;;;;2.78;0.20;;;;;;;;;;5077255;28;20043;-90
2023/10/21 10:38:01;;;;;;;4.15;0.85;;;;;;;;;;5044102;28;20402;-90
2023/10/21 10:40:31;;;;;;;6.68;0.75;;;;;;;;;;5056894;28;20040;-90
2023/10/21 10:42:58;;;;;;;3.97;0.80;;;;;;;;;;5057763;28;20460;-90
2023/10/21 10:45:23;;;;;;;3.17;0.68;;;;;;;;;;5061163;28;20055;-90
2023/10/21 10:47:58;;;;;;;4.57;0.80;;;;;;;;;;5060787;28;20021;-90
2023/10/21 10:50:24;;;;;;;4.50;0.85;;;;;;;;;;5060887;28;20070;-90
2023/10/21 10:52:49;;;;;;;3.50;0.68;;;;;;;;;;5078182;28;20012;-90
2023/10/21 10:55:15;;;;;;;4.90;0.55;;;;;;;;;;5057854;28;20090;-90
2023/10/21 10:57:42;;;;;;;8.15;0.85;;;;;;;;;;5053843;28;20785;-89
2023/10/21 11:00:10;;;;;;;7.78;1.10;;;;;;;;;;5057351;28;20029;-91
2023/10/21 11:02:42;;;;;;;7.80;0.77;;;;;;;;;;5049064;28;20039;-90
2023/10/21 11:05:08;;;;;;;11.30;1.05;;;;;;;;;;5056372;28;20028;-91
2023/10/21 11:07:34;;;;;;;5.85;0.80;;;;;;;;;;5055164;28;20337;-91
2023/10/21 11:10:06;;;;;;;12.02;1.73;;;;;;;;;;5054914;28;20586;-91
2023/10/21 11:12:36;;;;;;;6.45;0.57;;;;;;;;;;5053594;28;20112;-90
2023/10/21 11:15:06;;;;;;;5.97;0.90;;;;;;;;;;5083442;28;20046;-91
2023/10/21 11:17:34;;;;;;;7.60;0.70;;;;;;;;;;5054165;28;20021;-91
2023/10/21 11:19:59;;;;;;;12.40;1.33;;;;;;;;;;5053231;28;20469;-92
2023/10/21 11:22:28;;;;;;;7.88;1.25;;;;;;;;;;5055034;28;20122;-91
2023/10/21 11:24:53;;;;;;;5.53;0.80;;;;;;;;;;5055398;28;20047;-91
2023/10/21 11:27:18;;;;;;;5.63;0.57;;;;;;;;;;5088270;28;20021;-91
2023/10/21 11:29:44;;;;;;;3.65;0.70;;;;;;;;;;5055397;28;20020;-92
2023/10/21 11:32:13;;;;;;;7.35;0.55;;;;;;;;;;5055296;28;20024;-91
2023/10/21 11:34:43;;;;;;;1.00;0.30;;;;;;;;;;5055356;28;20039;-92
2023/10/21 11:37:09;;;;;;;2.88;0.80;;;;;;;;;;5054578;28;20464;-90
2023/10/21 11:39:34;;;;;;;5.13;0.70;;;;;;;;;;5054778;28;20051;-90
2023/10/21 11:41:59;;;;;;;7.18;0.88;;;;;;;;;;5055101;28;20452;-91
2023/10/21 11:44:31;;;;;;;10.05;1.02;;;;;;;;;;5044995;28;20024;-91
2023/10/21 11:47:04;;;;;;;5.30;1.10;;;;;;;;;;5084817;28;20024;-91
2023/10/21 11:49:35;;;;;;;6.13;1.08;;;;;;;;;;5053767;28;20040;-91
2023/10/21 11:52:00;;;;;;;11.77;1.03;;;;;;;;;;5054327;28;20019;-92
2023/10/21 11:54:46;;;;;;;7.03;0.90;;;;;;;;;;5055264;28;20249;-90
2023/10/21 12:28:12;;;;;;;9.57;1.60;;;;;;;;;;5070373;28;20099;-91
2023/10/21 12:30:26;;;;;;;15.20;1.08;;;;;;;;;;5064036;28;20353;-91
2023/10/21 12:42:48;;;;;;;12.70;1.05;;;;;;;;;;5072517;28;20634;-91
2023/10/21 12:45:22;;;;;;;11.32;1.60;;;;;;;;;;5054210;28;20024;-91
2023/10/21 12:47:50;;;;;;;7.63;0.90;;;;;;;;;;5053473;28;20025;-91
2023/10/21 12:50:19;;;;;;;8.88;0.52;;;;;;;;;;5054136;28;20467;-91
2023/10/21 12:52:46;;;;;;;6.53;0.80;;;;;;;;;;5053949;28;20020;-91
2023/10/21 12:55:13;;;;;;;17.33;1.55;;;;;;;;;;5072036;28;20448;-91
2023/10/21 12:57:39;;;;;;;3.35;0.40;;;;;;;;;;5054241;28;20484;-92
2023/10/21 13:00:05;;;;;;;11.10;1.20;;;;;;;;;;5054532;28;20159;-92
2023/10/21 13:02:35;;;;;;;3.83;0.70;;;;;;;;;;5053643;28;20098;-91
2023/10/21 13:05:03;;;;;;;10.57;1.10;;;;;;;;;;5071670;28;20675;-90
2023/10/21 13:07:31;;;;;;;7.82;1.30;;;;;;;;;;5055942;28;20037;-92
2023/10/21 13:09:58;;;;;;;6.15;0.70;;;;;;;;;;5055567;28;20049;-92
2023/10/21 13:12:23;;;;;;;6.63;1.40;;;;;;;;;;5054009;28;20035;-92
2023/10/21 13:14:54;;;;;;;5.28;1.10;;;;;;;;;;5054183;28;20025;-91
2023/10/21 13:17:23;;;;;;;9.02;0.28;;;;;;;;;;5053845;28;20086;-91
2023/10/21 13:19:48;;;;;;;6.97;1.17;;;;;;;;;;5054756;28;20414;-91
2023/10/21 13:22:13;;;;;;;8.50;0.90;;;;;;;;;;5076684;28;20024;-92
2023/10/21 13:24:41;;;;;;;8.02;1.13;;;;;;;;;;5058458;28;20035;-91
2023/10/21 13:27:10;;;;;;;6.18;0.80;;;;;;;;;;5052594;28;20153;-92
2023/10/21 13:29:36;;;;;;;3.85;0.85;;;;;;;;;;5060449;28;20178;-90
2023/10/21 13:32:01;;;;;;;6.57;0.88;;;;;;;;;;5059878;28;20024;-90
2023/10/21 13:34:27;;;;;;;6.32;0.98;;;;;;;;;;5059484;28;20016;-91
2023/10/21 13:36:52;;;;;;;4.43;0.57;;;;;;;;;;5082040;28;20078;-90
2023/10/21 13:39:22;;;;;;;3.50;0.40;;;;;;;;;;5058413;28;20025;-91
2023/10/21 13:41:47;;;;;;;7.35;1.00;;;;;;;;;;5057939;28;20691;-91
2023/10/21 13:44:13;;;;;;;8.25;1.20;;;;;;;;;;5056961;28;20021;-90
2023/10/21 13:46:40;;;;;;;12.07;1.10;;;;;;;;;;5056397;28;20028;-91
2023/10/21 13:49:13;;;;;;;7.13;1.30;;;;;;;;;;5057694;28;20027;-91
2023/10/21 13:51:39;;;;;;;12.73;1.33;;;;;;;;;;5057673;28;20454;-90
2023/10/21 13:54:04;;;;;;;6.90;0.70;;;;;;;;;;5057349;28;20502;-91
2023/10/21 13:56:29;;;;;;;5.40;0.90;;;;;;;;;;5057293;28;20017;-92
2023/10/21 13:58:54;;;;;;;5.18;0.73;;;;;;;;;;5057177;28;20345;-91
2023/10/21 14:01:20;;;;;;;3.83;0.90;;;;;;;;;;5090590;28;20074;-92
2023/10/21 14:03:48;;;;;;;5.93;0.90;;;;;;;;;;5074594;28;20051;-91
2023/10/21 14:06:13;;;;;;;9.23;1.10;;;;;;;;;;5056932;28;20107;-91
2023/10/21 14:08:39;;;;;;;6.63;0.57;;;;;;;;;;5056452;28;20108;-91
2023/10/21 14:11:08;;;;;;;9.30;0.90;;;;;;;;;;5056757;28;20055;-91
2023/10/21 14:13:36;;;;;;;7.20;0.98;;;;;;;;;;5056533;28;20031;-91
2023/10/21 14:16:11;;;;;;;6.80;0.73;;;;;;;;;;5056782;28;20048;-91
2023/10/21 14:18:37;;;;;;;5.15;1.33;;;;;;;;;;5074601;28;20087;-89
2023/10/21 14:21:03;;;;;;;7.35;1.05;;;;;;;;;;5057037;28;20128;-91
2023/10/21 14:23:29;;;;;;;4.20;0.80;;;;;;;;;;5056368;28;20079;-90
2023/10/21 14:25:59;;;;;;;3.22;0.73;;;;;;;;;;5056217;28;20020;-91
2023/10/21 14:28:27;;;;;;;14.32;1.23;;;;;;;;;;5056890;28;20024;-91
2023/10/21 14:30:54;;;;;;;9.80;0.93;;;;;;;;;;5056454;28;20494;-91
2023/10/21 14:33:21;;;;;;;6.53;0.82;;;;;;;;;;5057343;28;20044;-91
2023/10/21 14:35:48;;;;;;;0.55;0.15;;;;;;;;;;5076245;28;20013;-91
2023/10/21 14:38:21;;;;;;;5.57;0.95;;;;;;;;;;5058934;28;20012;-91
2023/10/21 14:40:50;;;;;;;8.23;0.77;;;;;;;;;;5058268;28;20037;-90
2023/10/21 14:43:16;;;;;;;8.30;0.98;;;;;;;;;;5057645;28;20020;-90
2023/10/21 14:45:43;;;;;;;3.40;0.70;;;;;;;;;;5058792;28;20023;-90
2023/10/21 14:48:09;;;;;;;5.70;0.90;;;;;;;;;;5075212;28;20028;-91
2023/10/21 14:50:38;;;;;;;6.50;0.60;;;;;;;;;;5056796;28;20555;-91
2023/10/21 14:53:04;;;;;;;5.57;1.20;;;;;;;;;;5074131;28;20500;-91
2023/10/21 14:55:30;;;;;;;4.28;0.90;;;;;;;;;;5042860;28;20463;-91
2023/10/21 14:57:56;;;;;;;10.13;0.80;;;;;;;;;;5056619;28;20033;-91
2023/10/21 15:00:22;;;;;;;6.78;0.50;;;;;;;;;;5055837;28;20027;-90
2023/10/21 15:02:55;;;;;;;7.45;0.93;;;;;;;;;;5055486;28;20029;-90
2023/10/21 15:05:21;;;;;;;2.38;0.63;;;;;;;;;;5055928;28;20197;-90
2023/10/21 15:07:48;;;;;;;5.47;0.75;;;;;;;;;;5055952;28;20028;-90
2023/10/21 15:10:16;;;;;;;5.30;0.73;;;;;;;;;;5073774;28;20356;-90
2023/10/21 15:12:46;;;;;;;5.85;0.90;;;;;;;;;;5055152;28;20418;-90
2023/10/21 15:15:14;;;;;;;5.32;1.42;;;;;;;;;;5040952;28;20098;-90
2023/10/21 15:17:40;;;;;;;4.93;0.90;;;;;;;;;;5055019;28;20042;-90
2023/10/21 15:20:07;;;;;;;6.63;0.90;;;;;;;;;;5055810;28;20032;-90
2023/10/21 15:22:32;;;;;;;10.65;1.10;;;;;;;;;;5055537;28;20028;-90